sensor_id;sensor_type;location;lat;lon;timestamp;P1;durP1;ratioP1;P2;durP2;ratioP2
37077;SDS011;22989;55.998;37.212;2023-02-15T00:00:42;3.58;;;0.70;;
37077;SDS011;22989;55.998;37.212;2023-02-15T00:03:07;2.72;;;0.80;;
37077;SDS011;22989;55.998;37.212;2023-02-15T00:05:33;1.85;;;0.82;;
37077;SDS011;22989;55.998;37.212;2023-02-15T00:07:58;5.05;;;1.17;;
37077;SDS011;22989;55.998;37.212;2023-02-15T00:10:24;3.67;;;0.90;;
37077;SDS011;22989;55.998;37.212;2023-02-15T00:12:50;3.95;;;0.80;;
37077;SDS011;22989;55.998;37.212;2023-02-15T00:15:15;3.85;;;1.00;;
37077;SDS011;22989;55.998;37.212;2023-02-15T00:17:41;1.77;;;0.80;;
37077;SDS011;22989;55.998;37.212;2023-02-15T00:20:06;2.45;;;0.73;;
37077;SDS011;22989;55.998;37.212;2023-02-15T00:22:32;1.70;;;0.80;;
37077;SDS011;22989;55.998;37.212;2023-02-15T00:24:58;3.53;;;1.13;;
37077;SDS011;22989;55.998;37.212;2023-02-15T00:27:23;4.13;;;0.90;;
37077;SDS011;22989;55.998;37.212;2023-02-15T00:29:49;5.30;;;1.00;;
37077;SDS011;22989;55.998;37.212;2023-02-15T00:32:14;3.90;;;0.95;;
37077;SDS011;22989;55.998;37.212;2023-02-15T00:34:40;2.15;;;0.80;;
37077;SDS011;22989;55.998;37.212;2023-02-15T00:37:06;1.95;;;0.80;;
37077;SDS011;22989;55.998;37.212;2023-02-15T00:39:31;5.07;;;0.98;;
37077;SDS011;22989;55.998;37.212;2023-02-15T00:41:57;1.40;;;0.80;;
37077;SDS011;22989;55.998;37.212;2023-02-15T00:44:23;2.53;;;0.90;;
37077;SDS011;22989;55.998;37.212;2023-02-15T00:46:49;5.68;;;1.05;;
37077;SDS011;22989;55.998;37.212;2023-02-15T00:49:15;3.00;;;1.23;;
37077;SDS011;22989;55.998;37.212;2023-02-15T00:51:40;3.58;;;1.02;;
37077;SDS011;22989;55.998;37.212;2023-02-15T00:54:07;3.25;;;1.60;;
37077;SDS011;22989;55.998;37.212;2023-02-15T00:56:32;5.43;;;1.00;;
37077;SDS011;22989;55.998;37.212;2023-02-15T00:58:58;3.50;;;0.98;;
37077;SDS011;22989;55.998;37.212;2023-02-15T01:01:24;2.22;;;0.90;;
37077;SDS011;22989;55.998;37.212;2023-02-15T01:03:51;3.38;;;0.90;;
37077;SDS011;22989;55.998;37.212;2023-02-15T01:06:17;2.85;;;1.00;;
37077;SDS011;22989;55.998;37.212;2023-02-15T01:08:43;2.35;;;1.05;;
37077;SDS011;22989;55.998;37.212;2023-02-15T01:11:18;2.63;;;1.10;;
37077;SDS011;22989;55.998;37.212;2023-02-15T01:13:47;4.00;;;1.17;;
37077;SDS011;22989;55.998;37.212;2023-02-15T01:16:14;1.55;;;1.05;;
37077;SDS011;22989;55.998;37.212;2023-02-15T01:18:41;4.95;;;1.05;;
37077;SDS011;22989;55.998;37.212;2023-02-15T01:21:14;5.55;;;1.00;;
37077;SDS011;22989;55.998;37.212;2023-02-15T01:23:42;1.30;;;0.88;;
37077;SDS011;22989;55.998;37.212;2023-02-15T01:26:11;7.82;;;0.98;;
37077;SDS011;22989;55.998;37.212;2023-02-15T01:28:37;3.53;;;1.85;;
37077;SDS011;22989;55.998;37.212;2023-02-15T01:31:07;6.28;;;1.30;;
37077;SDS011;22989;55.998;37.212;2023-02-15T01:33:34;6.43;;;1.27;;
37077;SDS011;22989;55.998;37.212;2023-02-15T01:36:01;2.80;;;1.05;;
37077;SDS011;22989;55.998;37.212;2023-02-15T01:38:27;5.88;;;1.35;;
37077;SDS011;22989;55.998;37.212;2023-02-15T01:40:53;3.67;;;1.20;;
37077;SDS011;22989;55.998;37.212;2023-02-15T01:43:42;2.47;;;1.17;;
37077;SDS011;22989;55.998;37.212;2023-02-15T01:46:10;3.88;;;1.10;;
37077;SDS011;22989;55.998;37.212;2023-02-15T01:48:39;5.38;;;1.23;;
37077;SDS011;22989;55.998;37.212;2023-02-15T01:51:09;4.18;;;0.88;;
37077;SDS011;22989;55.998;37.212;2023-02-15T01:53:37;3.47;;;1.20;;
37077;SDS011;22989;55.998;37.212;2023-02-15T01:56:09;2.35;;;1.10;;
37077;SDS011;22989;55.998;37.212;2023-02-15T01:58:38;3.03;;;1.38;;
37077;SDS011;22989;55.998;37.212;2023-02-15T02:01:04;2.45;;;1.10;;
37077;SDS011;22989;55.998;37.212;2023-02-15T02:03:49;3.28;;;0.93;;
37077;SDS011;22989;55.998;37.212;2023-02-15T02:06:24;3.35;;;0.98;;
37077;SDS011;22989;55.998;37.212;2023-02-15T02:08:51;3.63;;;1.25;;
37077;SDS011;22989;55.998;37.212;2023-02-15T02:11:18;6.70;;;1.20;;
37077;SDS011;22989;55.998;37.212;2023-02-15T02:13:45;4.35;;;1.40;;
37077;SDS011;22989;55.998;37.212;2023-02-15T02:21:41;4.25;;;1.33;;
37077;SDS011;22989;55.998;37.212;2023-02-15T02:29:37;5.03;;;1.05;;
37077;SDS011;22989;55.998;37.212;2023-02-15T02:35:22;3.85;;;1.20;;
37077;SDS011;22989;55.998;37.212;2023-02-15T02:40:47;1.92;;;1.08;;
37077;SDS011;22989;55.998;37.212;2023-02-15T02:46:32;4.60;;;1.00;;
37077;SDS011;22989;55.998;37.212;2023-02-15T02:49:02;3.78;;;1.30;;
37077;SDS011;22989;55.998;37.212;2023-02-15T02:51:29;3.53;;;0.80;;
37077;SDS011;22989;55.998;37.212;2023-02-15T02:53:57;2.60;;;1.00;;
37077;SDS011;22989;55.998;37.212;2023-02-15T02:56:43;4.07;;;1.25;;
37077;SDS011;22989;55.998;37.212;2023-02-15T02:59:15;2.72;;;1.27;;
37077;SDS011;22989;55.998;37.212;2023-02-15T03:02:13;2.58;;;1.10;;
37077;SDS011;22989;55.998;37.212;2023-02-15T03:04:47;3.50;;;0.90;;
37077;SDS011;22989;55.998;37.212;2023-02-15T03:07:23;3.55;;;1.48;;
37077;SDS011;22989;55.998;37.212;2023-02-15T03:09:54;3.65;;;0.88;;
37077;SDS011;22989;55.998;37.212;2023-02-15T03:12:27;2.65;;;0.90;;
37077;SDS011;22989;55.998;37.212;2023-02-15T03:15:10;3.88;;;1.02;;
37077;SDS011;22989;55.998;37.212;2023-02-15T03:18:19;1.73;;;0.93;;
37077;SDS011;22989;55.998;37.212;2023-02-15T03:20:47;2.47;;;0.85;;
37077;SDS011;22989;55.998;37.212;2023-02-15T03:23:17;3.90;;;1.08;;
37077;SDS011;22989;55.998;37.212;2023-02-15T03:26:06;3.25;;;1.10;;
37077;SDS011;22989;55.998;37.212;2023-02-15T03:28:40;2.53;;;1.10;;
37077;SDS011;22989;55.998;37.212;2023-02-15T03:31:09;2.25;;;0.80;;
37077;SDS011;22989;55.998;37.212;2023-02-15T03:33:40;2.15;;;1.00;;
37077;SDS011;22989;55.998;37.212;2023-02-15T03:36:27;2.97;;;1.00;;
37077;SDS011;22989;55.998;37.212;2023-02-15T03:44:31;2.70;;;1.17;;
37077;SDS011;22989;55.998;37.212;2023-02-15T03:47:04;3.75;;;1.23;;
37077;SDS011;22989;55.998;37.212;2023-02-15T03:52:15;5.55;;;1.00;;
37077;SDS011;22989;55.998;37.212;2023-02-15T03:54:43;6.70;;;1.40;;
37077;SDS011;22989;55.998;37.212;2023-02-15T03:57:11;4.78;;;1.10;;
37077;SDS011;22989;55.998;37.212;2023-02-15T04:00:14;4.80;;;1.30;;
37077;SDS011;22989;55.998;37.212;2023-02-15T04:05:34;2.40;;;1.10;;
37077;SDS011;22989;55.998;37.212;2023-02-15T04:08:00;4.28;;;1.10;;
37077;SDS011;22989;55.998;37.212;2023-02-15T04:10:26;3.13;;;1.13;;
37077;SDS011;22989;55.998;37.212;2023-02-15T04:13:11;2.55;;;1.30;;
37077;SDS011;22989;55.998;37.212;2023-02-15T04:15:36;5.97;;;1.27;;
37077;SDS011;22989;55.998;37.212;2023-02-15T04:18:20;4.68;;;1.40;;
37077;SDS011;22989;55.998;37.212;2023-02-15T04:20:46;4.20;;;1.38;;
37077;SDS011;22989;55.998;37.212;2023-02-15T04:23:31;10.15;;;1.33;;
37077;SDS011;22989;55.998;37.212;2023-02-15T04:26:15;5.72;;;1.45;;
37077;SDS011;22989;55.998;37.212;2023-02-15T04:28:40;6.05;;;1.85;;
37077;SDS011;22989;55.998;37.212;2023-02-15T04:31:06;8.07;;;1.70;;
37077;SDS011;22989;55.998;37.212;2023-02-15T04:33:32;3.17;;;1.40;;
37077;SDS011;22989;55.998;37.212;2023-02-15T04:35:58;4.45;;;1.17;;
37077;SDS011;22989;55.998;37.212;2023-02-15T04:38:23;4.97;;;1.20;;
37077;SDS011;22989;55.998;37.212;2023-02-15T04:40:49;1.85;;;1.10;;
37077;SDS011;22989;55.998;37.212;2023-02-15T04:43:17;6.03;;;1.50;;
37077;SDS011;22989;55.998;37.212;2023-02-15T04:45:50;2.28;;;1.27;;
37077;SDS011;22989;55.998;37.212;2023-02-15T04:48:16;1.92;;;1.35;;
37077;SDS011;22989;55.998;37.212;2023-02-15T04:50:43;3.55;;;1.42;;
37077;SDS011;22989;55.998;37.212;2023-02-15T04:53:09;3.55;;;1.23;;
37077;SDS011;22989;55.998;37.212;2023-02-15T04:55:35;7.00;;;1.83;;
37077;SDS011;22989;55.998;37.212;2023-02-15T04:58:00;2.80;;;1.40;;
37077;SDS011;22989;55.998;37.212;2023-02-15T05:00:26;2.85;;;1.10;;
37077;SDS011;22989;55.998;37.212;2023-02-15T05:02:52;3.50;;;1.42;;
37077;SDS011;22989;55.998;37.212;2023-02-15T05:05:18;3.58;;;1.40;;
37077;SDS011;22989;55.998;37.212;2023-02-15T05:07:44;6.00;;;1.48;;
37077;SDS011;22989;55.998;37.212;2023-02-15T05:10:09;3.88;;;1.50;;
37077;SDS011;22989;55.998;37.212;2023-02-15T05:12:35;7.13;;;1.70;;
37077;SDS011;22989;55.998;37.212;2023-02-15T05:15:01;5.75;;;1.70;;
37077;SDS011;22989;55.998;37.212;2023-02-15T05:17:26;4.63;;;1.40;;
37077;SDS011;22989;55.998;37.212;2023-02-15T05:19:52;8.77;;;2.03;;
37077;SDS011;22989;55.998;37.212;2023-02-15T05:22:18;5.75;;;1.58;;
37077;SDS011;22989;55.998;37.212;2023-02-15T05:24:43;2.88;;;1.58;;
37077;SDS011;22989;55.998;37.212;2023-02-15T05:27:27;3.60;;;2.00;;
37077;SDS011;22989;55.998;37.212;2023-02-15T05:30:11;4.32;;;1.50;;
37077;SDS011;22989;55.998;37.212;2023-02-15T05:32:38;4.68;;;1.80;;
37077;SDS011;22989;55.998;37.212;2023-02-15T05:35:04;4.97;;;1.63;;
37077;SDS011;22989;55.998;37.212;2023-02-15T05:37:30;3.85;;;1.45;;
37077;SDS011;22989;55.998;37.212;2023-02-15T05:39:56;4.60;;;1.83;;
37077;SDS011;22989;55.998;37.212;2023-02-15T05:42:22;5.90;;;1.77;;
37077;SDS011;22989;55.998;37.212;2023-02-15T05:44:47;5.03;;;1.85;;
37077;SDS011;22989;55.998;37.212;2023-02-15T05:47:13;3.83;;;1.80;;
37077;SDS011;22989;55.998;37.212;2023-02-15T05:49:38;4.85;;;1.80;;
37077;SDS011;22989;55.998;37.212;2023-02-15T05:52:05;5.28;;;1.63;;
37077;SDS011;22989;55.998;37.212;2023-02-15T05:54:30;2.75;;;1.52;;
37077;SDS011;22989;55.998;37.212;2023-02-15T05:56:56;3.40;;;1.38;;
37077;SDS011;22989;55.998;37.212;2023-02-15T05:59:22;6.85;;;2.00;;
37077;SDS011;22989;55.998;37.212;2023-02-15T06:01:48;6.07;;;1.73;;
37077;SDS011;22989;55.998;37.212;2023-02-15T06:04:13;6.65;;;1.80;;
37077;SDS011;22989;55.998;37.212;2023-02-15T06:06:39;3.92;;;1.75;;
37077;SDS011;22989;55.998;37.212;2023-02-15T06:09:05;4.85;;;2.17;;
37077;SDS011;22989;55.998;37.212;2023-02-15T06:11:30;7.43;;;2.10;;
37077;SDS011;22989;55.998;37.212;2023-02-15T06:13:56;3.83;;;1.65;;
37077;SDS011;22989;55.998;37.212;2023-02-15T06:16:21;4.10;;;2.22;;
37077;SDS011;22989;55.998;37.212;2023-02-15T06:18:47;5.57;;;1.63;;
37077;SDS011;22989;55.998;37.212;2023-02-15T06:21:13;3.85;;;1.80;;
37077;SDS011;22989;55.998;37.212;2023-02-15T06:23:38;8.63;;;1.48;;
37077;SDS011;22989;55.998;37.212;2023-02-15T06:26:04;3.53;;;1.60;;
37077;SDS011;22989;55.998;37.212;2023-02-15T06:28:30;4.57;;;1.50;;
37077;SDS011;22989;55.998;37.212;2023-02-15T06:30:55;2.92;;;1.50;;
37077;SDS011;22989;55.998;37.212;2023-02-15T06:33:21;4.78;;;1.40;;
37077;SDS011;22989;55.998;37.212;2023-02-15T06:35:47;4.18;;;1.40;;
37077;SDS011;22989;55.998;37.212;2023-02-15T06:38:12;4.38;;;1.42;;
37077;SDS011;22989;55.998;37.212;2023-02-15T06:40:38;8.35;;;3.15;;
37077;SDS011;22989;55.998;37.212;2023-02-15T06:43:04;7.47;;;2.03;;
37077;SDS011;22989;55.998;37.212;2023-02-15T06:45:29;7.43;;;1.65;;
37077;SDS011;22989;55.998;37.212;2023-02-15T06:47:55;6.35;;;1.60;;
37077;SDS011;22989;55.998;37.212;2023-02-15T06:50:20;4.93;;;1.80;;
37077;SDS011;22989;55.998;37.212;2023-02-15T06:52:46;6.18;;;1.92;;
37077;SDS011;22989;55.998;37.212;2023-02-15T06:55:11;6.47;;;2.28;;
37077;SDS011;22989;55.998;37.212;2023-02-15T06:57:37;2.30;;;1.42;;
37077;SDS011;22989;55.998;37.212;2023-02-15T07:00:03;3.65;;;1.98;;
37077;SDS011;22989;55.998;37.212;2023-02-15T07:02:30;3.40;;;1.52;;
37077;SDS011;22989;55.998;37.212;2023-02-15T07:04:56;4.57;;;1.95;;
37077;SDS011;22989;55.998;37.212;2023-02-15T07:07:22;2.35;;;1.30;;
37077;SDS011;22989;55.998;37.212;2023-02-15T07:09:47;5.53;;;2.10;;
37077;SDS011;22989;55.998;37.212;2023-02-15T07:12:13;6.88;;;1.95;;
37077;SDS011;22989;55.998;37.212;2023-02-15T07:14:57;5.45;;;1.95;;
37077;SDS011;22989;55.998;37.212;2023-02-15T07:17:23;6.63;;;1.92;;
37077;SDS011;22989;55.998;37.212;2023-02-15T07:19:49;8.38;;;1.85;;
37077;SDS011;22989;55.998;37.212;2023-02-15T07:22:14;5.05;;;2.17;;
37077;SDS011;22989;55.998;37.212;2023-02-15T07:24:40;2.03;;;1.20;;
37077;SDS011;22989;55.998;37.212;2023-02-15T07:27:06;7.00;;;1.90;;
37077;SDS011;22989;55.998;37.212;2023-02-15T07:29:32;7.20;;;1.88;;
37077;SDS011;22989;55.998;37.212;2023-02-15T07:31:58;2.30;;;1.75;;
37077;SDS011;22989;55.998;37.212;2023-02-15T07:34:23;3.25;;;1.60;;
37077;SDS011;22989;55.998;37.212;2023-02-15T07:36:52;3.83;;;1.55;;
37077;SDS011;22989;55.998;37.212;2023-02-15T07:39:19;1.90;;;1.60;;
37077;SDS011;22989;55.998;37.212;2023-02-15T07:41:44;5.55;;;1.60;;
37077;SDS011;22989;55.998;37.212;2023-02-15T07:44:11;4.18;;;1.77;;
37077;SDS011;22989;55.998;37.212;2023-02-15T07:46:38;5.22;;;2.20;;
37077;SDS011;22989;55.998;37.212;2023-02-15T07:49:04;4.60;;;1.95;;
37077;SDS011;22989;55.998;37.212;2023-02-15T07:51:29;3.15;;;1.80;;
37077;SDS011;22989;55.998;37.212;2023-02-15T07:53:55;8.43;;;1.67;;
37077;SDS011;22989;55.998;37.212;2023-02-15T07:56:21;3.60;;;1.50;;
37077;SDS011;22989;55.998;37.212;2023-02-15T07:58:46;3.72;;;1.42;;
37077;SDS011;22989;55.998;37.212;2023-02-15T08:01:19;4.97;;;1.50;;
37077;SDS011;22989;55.998;37.212;2023-02-15T08:03:49;4.70;;;1.90;;
37077;SDS011;22989;55.998;37.212;2023-02-15T08:06:15;4.82;;;1.70;;
37077;SDS011;22989;55.998;37.212;2023-02-15T08:08:41;4.30;;;1.70;;
37077;SDS011;22989;55.998;37.212;2023-02-15T08:11:14;3.35;;;1.40;;
37077;SDS011;22989;55.998;37.212;2023-02-15T08:16:44;5.00;;;1.50;;
37077;SDS011;22989;55.998;37.212;2023-02-15T08:19:16;5.05;;;1.67;;
37077;SDS011;22989;55.998;37.212;2023-02-15T08:21:49;1.95;;;1.40;;
37077;SDS011;22989;55.998;37.212;2023-02-15T08:24:19;3.78;;;1.90;;
37077;SDS011;22989;55.998;37.212;2023-02-15T08:26:46;3.20;;;1.42;;
37077;SDS011;22989;55.998;37.212;2023-02-15T08:29:16;4.13;;;1.70;;
37077;SDS011;22989;55.998;37.212;2023-02-15T08:31:43;5.97;;;1.50;;
37077;SDS011;22989;55.998;37.212;2023-02-15T08:34:09;5.15;;;1.80;;
37077;SDS011;22989;55.998;37.212;2023-02-15T08:36:38;3.08;;;1.20;;
37077;SDS011;22989;55.998;37.212;2023-02-15T08:39:04;3.65;;;1.50;;
37077;SDS011;22989;55.998;37.212;2023-02-15T08:41:32;4.68;;;2.08;;
37077;SDS011;22989;55.998;37.212;2023-02-15T08:44:03;2.78;;;1.50;;
37077;SDS011;22989;55.998;37.212;2023-02-15T08:46:31;5.72;;;1.90;;
37077;SDS011;22989;55.998;37.212;2023-02-15T08:49:01;4.07;;;1.42;;
37077;SDS011;22989;55.998;37.212;2023-02-15T08:51:28;3.60;;;1.58;;
37077;SDS011;22989;55.998;37.212;2023-02-15T08:53:56;4.47;;;1.70;;
37077;SDS011;22989;55.998;37.212;2023-02-15T08:56:24;2.00;;;1.45;;
37077;SDS011;22989;55.998;37.212;2023-02-15T08:58:55;3.47;;;1.67;;
37077;SDS011;22989;55.998;37.212;2023-02-15T09:01:23;4.50;;;2.00;;
37077;SDS011;22989;55.998;37.212;2023-02-15T09:03:51;3.80;;;1.65;;
37077;SDS011;22989;55.998;37.212;2023-02-15T09:06:26;4.00;;;1.38;;
37077;SDS011;22989;55.998;37.212;2023-02-15T09:08:52;3.20;;;1.63;;
37077;SDS011;22989;55.998;37.212;2023-02-15T09:11:26;3.58;;;1.75;;
37077;SDS011;22989;55.998;37.212;2023-02-15T09:13:57;4.45;;;1.65;;
37077;SDS011;22989;55.998;37.212;2023-02-15T09:16:25;5.88;;;1.85;;
37077;SDS011;22989;55.998;37.212;2023-02-15T09:18:53;8.52;;;1.48;;
37077;SDS011;22989;55.998;37.212;2023-02-15T09:21:20;3.55;;;1.67;;
37077;SDS011;22989;55.998;37.212;2023-02-15T09:23:48;3.72;;;1.80;;
37077;SDS011;22989;55.998;37.212;2023-02-15T09:26:17;4.72;;;2.30;;
37077;SDS011;22989;55.998;37.212;2023-02-15T09:28:44;6.63;;;1.80;;
37077;SDS011;22989;55.998;37.212;2023-02-15T09:33:41;5.68;;;1.63;;
37077;SDS011;22989;55.998;37.212;2023-02-15T09:36:18;4.13;;;1.92;;
37077;SDS011;22989;55.998;37.212;2023-02-15T09:39:13;3.78;;;1.67;;
37077;SDS011;22989;55.998;37.212;2023-02-15T09:47:38;3.20;;;1.20;;
37077;SDS011;22989;55.998;37.212;2023-02-15T09:50:20;2.47;;;1.05;;
37077;SDS011;22989;55.998;37.212;2023-02-15T09:58:52;3.00;;;1.05;;
37077;SDS011;22989;55.998;37.212;2023-02-15T10:01:48;1.98;;;0.90;;
37077;SDS011;22989;55.998;37.212;2023-02-15T10:04:19;2.00;;;1.40;;
37077;SDS011;22989;55.998;37.212;2023-02-15T10:26:47;3.83;;;1.63;;
37077;SDS011;22989;55.998;37.212;2023-02-15T10:31:58;2.00;;;1.50;;
37077;SDS011;22989;55.998;37.212;2023-02-15T10:34:39;2.65;;;1.38;;
37077;SDS011;22989;55.998;37.212;2023-02-15T10:42:47;4.40;;;1.88;;
37077;SDS011;22989;55.998;37.212;2023-02-15T10:45:20;3.42;;;1.67;;
37077;SDS011;22989;55.998;37.212;2023-02-15T10:56:02;5.53;;;1.70;;
37077;SDS011;22989;55.998;37.212;2023-02-15T10:58:49;4.00;;;1.63;;
37077;SDS011;22989;55.998;37.212;2023-02-15T11:01:37;3.70;;;1.65;;
37077;SDS011;22989;55.998;37.212;2023-02-15T11:07:26;2.88;;;1.77;;
37077;SDS011;22989;55.998;37.212;2023-02-15T11:10:05;7.00;;;1.73;;
37077;SDS011;22989;55.998;37.212;2023-02-15T11:12:32;3.47;;;1.48;;
37077;SDS011;22989;55.998;37.212;2023-02-15T11:15:01;3.90;;;1.75;;
37077;SDS011;22989;55.998;37.212;2023-02-15T11:17:38;4.80;;;1.80;;
37077;SDS011;22989;55.998;37.212;2023-02-15T11:22:47;2.22;;;1.38;;
37077;SDS011;22989;55.998;37.212;2023-02-15T11:25:20;2.25;;;1.40;;
37077;SDS011;22989;55.998;37.212;2023-02-15T11:27:52;14.07;;;1.40;;
37077;SDS011;22989;55.998;37.212;2023-02-15T11:30:21;2.47;;;1.60;;
37077;SDS011;22989;55.998;37.212;2023-02-15T11:32:53;2.50;;;1.70;;
37077;SDS011;22989;55.998;37.212;2023-02-15T11:35:37;1.90;;;1.33;;
37077;SDS011;22989;55.998;37.212;2023-02-15T11:38:17;3.42;;;1.55;;
37077;SDS011;22989;55.998;37.212;2023-02-15T11:40:53;2.90;;;1.38;;
37077;SDS011;22989;55.998;37.212;2023-02-15T11:46:00;3.35;;;1.95;;
37077;SDS011;22989;55.998;37.212;2023-02-15T11:48:26;2.67;;;1.50;;
37077;SDS011;22989;55.998;37.212;2023-02-15T11:50:56;1.90;;;1.25;;
37077;SDS011;22989;55.998;37.212;2023-02-15T11:53:22;4.00;;;1.45;;
37077;SDS011;22989;55.998;37.212;2023-02-15T11:55:53;3.83;;;1.80;;
37077;SDS011;22989;55.998;37.212;2023-02-15T11:58:39;2.53;;;1.33;;
37077;SDS011;22989;55.998;37.212;2023-02-15T12:01:23;2.65;;;1.38;;
37077;SDS011;22989;55.998;37.212;2023-02-15T12:03:50;2.83;;;1.25;;
37077;SDS011;22989;55.998;37.212;2023-02-15T12:06:24;4.13;;;1.60;;
37077;SDS011;22989;55.998;37.212;2023-02-15T12:11:37;4.43;;;1.40;;
37077;SDS011;22989;55.998;37.212;2023-02-15T12:14:08;3.75;;;1.60;;
37077;SDS011;22989;55.998;37.212;2023-02-15T12:16:49;3.72;;;1.63;;
37077;SDS011;22989;55.998;37.212;2023-02-15T12:21:53;4.75;;;1.80;;
37077;SDS011;22989;55.998;37.212;2023-02-15T12:24:38;2.63;;;1.38;;
37077;SDS011;22989;55.998;37.212;2023-02-15T12:27:18;4.38;;;1.45;;
37077;SDS011;22989;55.998;37.212;2023-02-15T12:29:49;4.18;;;1.42;;
37077;SDS011;22989;55.998;37.212;2023-02-15T12:32:28;2.40;;;1.25;;
37077;SDS011;22989;55.998;37.212;2023-02-15T12:35:12;3.13;;;1.42;;
37077;SDS011;22989;55.998;37.212;2023-02-15T12:37:51;1.25;;;1.10;;
37077;SDS011;22989;55.998;37.212;2023-02-15T12:40:28;5.65;;;1.95;;
37077;SDS011;22989;55.998;37.212;2023-02-15T12:42:55;2.65;;;1.20;;
37077;SDS011;22989;55.998;37.212;2023-02-15T12:45:29;2.28;;;1.35;;
37077;SDS011;22989;55.998;37.212;2023-02-15T12:50:41;2.47;;;1.42;;
37077;SDS011;22989;55.998;37.212;2023-02-15T12:53:31;2.08;;;1.10;;
37077;SDS011;22989;55.998;37.212;2023-02-15T12:55:59;1.38;;;0.98;;
37077;SDS011;22989;55.998;37.212;2023-02-15T12:58:27;1.50;;;1.10;;
37077;SDS011;22989;55.998;37.212;2023-02-15T13:06:20;3.63;;;1.23;;
37077;SDS011;22989;55.998;37.212;2023-02-15T13:08:47;2.28;;;1.10;;
37077;SDS011;22989;55.998;37.212;2023-02-15T13:11:19;1.67;;;1.10;;
37077;SDS011;22989;55.998;37.212;2023-02-15T13:13:52;2.78;;;1.42;;
37077;SDS011;22989;55.998;37.212;2023-02-15T13:16:33;4.43;;;1.40;;
37077;SDS011;22989;55.998;37.212;2023-02-15T13:19:18;2.60;;;1.60;;
37077;SDS011;22989;55.998;37.212;2023-02-15T13:21:49;1.83;;;1.30;;
37077;SDS011;22989;55.998;37.212;2023-02-15T13:24:27;2.42;;;1.58;;
37077;SDS011;22989;55.998;37.212;2023-02-15T13:26:58;2.30;;;1.30;;
37077;SDS011;22989;55.998;37.212;2023-02-15T13:29:26;2.38;;;1.60;;
37077;SDS011;22989;55.998;37.212;2023-02-15T13:31:54;3.08;;;1.30;;
37077;SDS011;22989;55.998;37.212;2023-02-15T13:34:25;3.53;;;1.50;;
37077;SDS011;22989;55.998;37.212;2023-02-15T13:39:30;1.77;;;1.40;;
37077;SDS011;22989;55.998;37.212;2023-02-15T13:42:14;3.72;;;1.50;;
37077;SDS011;22989;55.998;37.212;2023-02-15T13:45:02;4.68;;;1.40;;
37077;SDS011;22989;55.998;37.212;2023-02-15T13:50:35;1.63;;;1.27;;
37077;SDS011;22989;55.998;37.212;2023-02-15T14:09:40;1.73;;;1.23;;
37077;SDS011;22989;55.998;37.212;2023-02-15T14:17:17;2.58;;;1.55;;
37077;SDS011;22989;55.998;37.212;2023-02-15T14:19:52;3.63;;;0.90;;
37077;SDS011;22989;55.998;37.212;2023-02-15T14:28:04;2.33;;;1.50;;
37077;SDS011;22989;55.998;37.212;2023-02-15T14:30:38;2.60;;;1.30;;
37077;SDS011;22989;55.998;37.212;2023-02-15T14:33:10;4.05;;;1.67;;
37077;SDS011;22989;55.998;37.212;2023-02-15T14:35:52;2.38;;;1.50;;
37077;SDS011;22989;55.998;37.212;2023-02-15T14:49:06;2.50;;;1.75;;
37077;SDS011;22989;55.998;37.212;2023-02-15T14:54:11;2.15;;;1.40;;
37077;SDS011;22989;55.998;37.212;2023-02-15T14:59:37;1.92;;;1.45;;
37077;SDS011;22989;55.998;37.212;2023-02-15T15:09:37;2.25;;;1.20;;
37077;SDS011;22989;55.998;37.212;2023-02-15T15:14:47;2.28;;;1.60;;
37077;SDS011;22989;55.998;37.212;2023-02-15T15:17:51;1.63;;;1.30;;
37077;SDS011;22989;55.998;37.212;2023-02-15T15:20:11;3.53;;;1.40;;
37077;SDS011;22989;55.998;37.212;2023-02-15T15:22:40;2.70;;;1.20;;
37077;SDS011;22989;55.998;37.212;2023-02-15T15:27:54;4.78;;;1.83;;
37077;SDS011;22989;55.998;37.212;2023-02-15T15:38:02;3.42;;;1.55;;
37077;SDS011;22989;55.998;37.212;2023-02-15T15:49:00;2.70;;;1.55;;
37077;SDS011;22989;55.998;37.212;2023-02-15T15:51:30;2.70;;;1.48;;
37077;SDS011;22989;55.998;37.212;2023-02-15T15:53:58;3.42;;;1.50;;
37077;SDS011;22989;55.998;37.212;2023-02-15T15:56:35;1.70;;;1.23;;
37077;SDS011;22989;55.998;37.212;2023-02-15T15:59:03;4.78;;;1.38;;
37077;SDS011;22989;55.998;37.212;2023-02-15T16:01:33;4.60;;;1.60;;
37077;SDS011;22989;55.998;37.212;2023-02-15T16:06:30;2.22;;;1.45;;
37077;SDS011;22989;55.998;37.212;2023-02-15T16:09:08;3.60;;;1.42;;
37077;SDS011;22989;55.998;37.212;2023-02-15T16:11:35;3.00;;;1.58;;
37077;SDS011;22989;55.998;37.212;2023-02-15T16:14:10;3.72;;;1.80;;
37077;SDS011;22989;55.998;37.212;2023-02-15T16:16:38;3.30;;;1.20;;
37077;SDS011;22989;55.998;37.212;2023-02-15T16:19:03;2.55;;;1.10;;
37077;SDS011;22989;55.998;37.212;2023-02-15T16:21:34;2.08;;;1.10;;
37077;SDS011;22989;55.998;37.212;2023-02-15T16:26:51;2.03;;;1.30;;
37077;SDS011;22989;55.998;37.212;2023-02-15T16:29:31;1.88;;;1.60;;
37077;SDS011;22989;55.998;37.212;2023-02-15T16:31:59;2.88;;;1.60;;
37077;SDS011;22989;55.998;37.212;2023-02-15T16:34:25;2.47;;;1.40;;
37077;SDS011;22989;55.998;37.212;2023-02-15T16:37:12;2.95;;;1.40;;
37077;SDS011;22989;55.998;37.212;2023-02-15T16:39:46;1.30;;;1.15;;
37077;SDS011;22989;55.998;37.212;2023-02-15T16:42:16;3.00;;;1.40;;
37077;SDS011;22989;55.998;37.212;2023-02-15T16:44:45;2.03;;;1.20;;
37077;SDS011;22989;55.998;37.212;2023-02-15T16:49:48;2.33;;;1.40;;
37077;SDS011;22989;55.998;37.212;2023-02-15T16:52:24;1.85;;;1.17;;
37077;SDS011;22989;55.998;37.212;2023-02-15T16:54:56;2.78;;;1.30;;
37077;SDS011;22989;55.998;37.212;2023-02-15T16:57:26;3.45;;;0.93;;
37077;SDS011;22989;55.998;37.212;2023-02-15T17:00:00;1.75;;;1.17;;
37077;SDS011;22989;55.998;37.212;2023-02-15T17:02:31;3.10;;;1.27;;
37077;SDS011;22989;55.998;37.212;2023-02-15T17:07:39;1.25;;;1.10;;
37077;SDS011;22989;55.998;37.212;2023-02-15T17:10:34;1.95;;;1.23;;
37077;SDS011;22989;55.998;37.212;2023-02-15T17:13:02;1.58;;;1.13;;
37077;SDS011;22989;55.998;37.212;2023-02-15T17:15:35;1.60;;;1.05;;
37077;SDS011;22989;55.998;37.212;2023-02-15T17:20:46;1.67;;;1.02;;
37077;SDS011;22989;55.998;37.212;2023-02-15T17:25:48;2.30;;;1.13;;
37077;SDS011;22989;55.998;37.212;2023-02-15T17:28:17;1.30;;;0.90;;
37077;SDS011;22989;55.998;37.212;2023-02-15T17:30:45;1.20;;;1.10;;
37077;SDS011;22989;55.998;37.212;2023-02-15T17:36:09;1.77;;;1.15;;
37077;SDS011;22989;55.998;37.212;2023-02-15T17:38:58;1.27;;;0.90;;
37077;SDS011;22989;55.998;37.212;2023-02-15T17:41:33;1.80;;;1.00;;
37077;SDS011;22989;55.998;37.212;2023-02-15T17:44:00;2.95;;;1.10;;
37077;SDS011;22989;55.998;37.212;2023-02-15T17:46:28;2.78;;;1.20;;
37077;SDS011;22989;55.998;37.212;2023-02-15T17:48:59;2.43;;;1.00;;
37077;SDS011;22989;55.998;37.212;2023-02-15T17:51:25;1.13;;;0.90;;
37077;SDS011;22989;55.998;37.212;2023-02-15T17:53:51;2.03;;;1.10;;
37077;SDS011;22989;55.998;37.212;2023-02-15T17:56:35;2.08;;;1.17;;
37077;SDS011;22989;55.998;37.212;2023-02-15T17:59:03;1.83;;;1.02;;
37077;SDS011;22989;55.998;37.212;2023-02-15T18:01:34;2.15;;;1.00;;
37077;SDS011;22989;55.998;37.212;2023-02-15T18:04:21;1.48;;;1.10;;
37077;SDS011;22989;55.998;37.212;2023-02-15T18:07:07;1.25;;;1.15;;
37077;SDS011;22989;55.998;37.212;2023-02-15T18:09:52;1.48;;;1.02;;
37077;SDS011;22989;55.998;37.212;2023-02-15T18:12:36;1.60;;;1.10;;
37077;SDS011;22989;55.998;37.212;2023-02-15T18:15:03;1.45;;;1.20;;
37077;SDS011;22989;55.998;37.212;2023-02-15T18:17:37;1.63;;;1.15;;